LGMK

Mikonos Airport

Mykonos Island, Greece
TAF LGMK 261100Z 2612/2621 36013KT 9999 FEW020
Issued Valid From Valid To
Apr-26 @ 11:00 UTC
(3 hours ago)
Apr-26 @ 12:00 UTC
(2 hours ago)
Apr-26 @ 21:00 UTC
(in 7 hours)
Apr-26 @ 12:00 to Apr-26 @ 21:00
TAF LGMK 261100Z 2612/2621 36013KT 9999 FEW020
Wind Visibility Clouds
360° at 13 knots 10,000+ meters
  • Few at 2,000' AGL
TAF LGMK 261100Z 2612/2621 36013KT 9999 FEW020
Issued Apr-26 @ 11:00 UTC
(3 hours ago)
Valid From Apr-26 @ 12:00 UTC
(2 hours ago)
Valid To Apr-26 @ 21:00 UTC
(in 7 hours)
Apr-26 @ 12:00 - Apr-26 @ 21:00
Wind Visibility
360° at 13 knots 10,000+ meters
Clouds
  • Few at 2,000' AGL